Time;durP1;ratioP1;P1;durP2;ratioP2;P2;SDS_P1;SDS_P2;PMS_P1;PMS_P2;Temp;Humidity;BMP_temperature;BMP_pressure;BME280_temperature;BME280_humidity;BME280_pressure;Samples;Min_cycle;Max_cycle;Signal;HPM_P1;HPM_P2
2022/04/30 00:00:08;;;;;;;10.45;6.90;;;10.00;50.70;;;;;;5093157;28;20039;-72
2022/04/30 00:02:35;;;;;;;14.13;7.97;;;10.00;51.00;;;;;;5091390;28;20060;-72
2022/04/30 00:05:02;;;;;;;12.70;7.70;;;10.00;51.10;;;;;;5091389;28;20116;-72
2022/04/30 00:07:28;;;;;;;15.38;7.88;;;10.00;50.90;;;;;;5074091;28;20082;-72
2022/04/30 00:09:54;;;;;;;17.35;8.02;;;10.00;51.10;;;;;;5074486;28;20114;-73
2022/04/30 00:12:21;;;;;;;14.23;7.95;;;9.90;51.10;;;;;;5090862;28;20040;-72
2022/04/30 00:14:47;;;;;;;14.38;6.95;;;9.90;51.20;;;;;;5091253;28;20031;-74
2022/04/30 00:17:14;;;;;;;12.02;7.28;;;9.80;51.50;;;;;;5107998;28;20036;-72
2022/04/30 00:19:41;;;;;;;13.77;6.68;;;9.80;51.20;;;;;;5094539;28;20040;-71
2022/04/30 00:22:08;;;;;;;;;;;9.80;51.20;;;;;;5111681;28;20439;-73
2022/04/30 00:24:35;;;;;;;13.40;6.93;;;9.70;50.80;;;;;;5094613;28;19920;-74
2022/04/30 00:27:02;;;;;;;11.70;7.13;;;9.70;51.60;;;;;;5110983;28;20462;-72
2022/04/30 00:29:29;;;;;;;14.35;7.03;;;9.60;51.80;;;;;;5111193;28;20055;-74
2022/04/30 00:31:57;;;;;;;11.32;6.97;;;9.60;51.50;;;;;;5110075;28;20043;-74
2022/04/30 00:34:23;;;;;;;12.57;7.38;;;9.60;52.10;;;;;;5111395;28;20056;-72
2022/04/30 00:36:49;;;;;;;14.00;7.75;;;9.50;52.40;;;;;;5112291;28;20062;-72
2022/04/30 00:39:16;;;;;;;12.10;7.63;;;9.50;52.40;;;;;;5113104;28;20048;-71
2022/04/30 00:42:01;;;;;;;11.80;7.32;;;9.40;51.80;;;;;;5110933;28;20034;-73
2022/04/30 00:47:32;;;;;;;13.05;7.32;;;9.40;52.40;;;;;;5113955;28;20070;-73
2022/04/30 00:49:58;;;;;;;11.45;6.53;;;9.50;52.80;;;;;;5115205;28;20407;-72
2022/04/30 00:52:28;;;;;;;12.10;7.60;;;9.40;52.50;;;;;;5114497;28;20028;-72
2022/04/30 00:54:59;;;;;;;15.68;7.18;;;9.30;52.70;;;;;;5115097;28;20492;-74
2022/04/30 00:57:31;;;;;;;14.05;6.85;;;9.30;52.70;;;;;;5114618;28;20503;-73
2022/04/30 01:00:00;;;;;;;13.93;6.82;;;9.30;52.80;;;;;;5114935;28;20126;-74
2022/04/30 01:02:45;;;;;;;11.63;6.82;;;9.30;52.90;;;;;;5113343;28;20028;-74
2022/04/30 01:05:11;;;;;;;11.63;6.20;;;9.30;53.10;;;;;;5114437;28;20035;-73
2022/04/30 01:07:39;;;;;;;10.63;6.00;;;9.30;53.10;;;;;;5116100;28;20384;-73
2022/04/30 01:10:08;;;;;;;12.80;6.10;;;9.20;53.00;;;;;;5114506;28;20118;-74
2022/04/30 01:12:36;;;;;;;8.35;4.78;;;9.10;53.40;;;;;;5115840;28;20039;-72
2022/04/30 01:15:05;;;;;;;10.02;5.05;;;9.00;53.30;;;;;;5114540;28;20035;-73
2022/04/30 01:17:31;;;;;;;9.40;4.93;;;9.00;53.20;;;;;;5113393;28;20035;-74
2022/04/30 01:19:58;;;;;;;12.10;5.28;;;8.90;52.80;;;;;;5114637;28;20062;-72
2022/04/30 01:23:03;;;;;;;9.35;4.80;;;9.00;53.10;;;;;;5096984;28;20119;-72
2022/04/30 01:25:48;;;;;;;9.00;4.97;;;8.90;53.20;;;;;;5114027;28;20039;-74
2022/04/30 01:28:17;;;;;;;9.15;5.35;;;8.80;53.00;;;;;;5114175;28;20075;-72
2022/04/30 01:30:43;;;;;;;13.13;5.43;;;8.70;53.70;;;;;;5096611;28;20062;-74
2022/04/30 01:37:22;;;;;;;11.00;6.40;;;8.60;54.20;;;;;;5114183;28;20400;-72
2022/04/30 01:38:49;;;;;;;10.05;5.95;;;8.60;54.20;;;;;;5115771;28;20110;-72
2022/04/30 01:41:16;;;;;;;11.55;5.57;;;8.60;54.20;;;;;;5115043;28;20527;-72
2022/04/30 01:43:43;;;;;;;9.88;5.45;;;8.60;53.60;;;;;;5097170;28;20044;-74
2022/04/30 01:46:09;;;;;;;8.50;4.72;;;8.50;53.60;;;;;;5095628;28;20027;-73
2022/04/30 01:48:36;;;;;;;12.25;6.07;;;8.50;54.40;;;;;;5114007;28;20040;-73
2022/04/30 01:51:02;;;;;;;13.52;6.30;;;8.50;54.20;;;;;;5114767;28;20502;-74
2022/04/30 01:53:30;;;;;;;;;;;8.50;54.30;;;;;;5097451;28;20123;-73
2022/04/30 01:55:57;;;;;;;10.52;6.53;;;8.50;53.70;;;;;;5114196;28;20310;-72
2022/04/30 01:58:23;;;;;;;11.70;6.20;;;8.40;54.10;;;;;;5114090;28;20030;-74
2022/04/30 02:00:49;;;;;;;16.33;6.82;;;8.40;54.40;;;;;;5114599;28;20034;-74
2022/04/30 02:03:16;;;;;;;;;;;8.30;54.10;;;;;;5114712;28;20035;-72
2022/04/30 02:05:42;;;;;;;13.52;6.70;;;8.30;53.50;;;;;;5113282;28;19915;-72
2022/04/30 02:08:27;;;;;;;12.80;6.80;;;8.20;54.50;;;;;;5113692;28;20384;-72
2022/04/30 02:10:54;;;;;;;11.02;6.35;;;8.20;54.80;;;;;;5113129;28;20119;-72
2022/04/30 02:13:23;;;;;;;;;;;8.10;54.30;;;;;;5114021;28;20107;-72
2022/04/30 02:15:51;;;;;;;10.60;5.65;;;8.10;54.00;;;;;;5096096;28;19922;-71
2022/04/30 02:18:20;;;;;;;13.13;6.60;;;8.10;54.50;;;;;;5112448;28;20325;-73
2022/04/30 02:20:49;;;;;;;12.07;5.90;;;8.10;55.00;;;;;;5113028;28;20128;-74
2022/04/30 02:23:16;;;;;;;11.38;6.22;;;8.10;54.90;;;;;;5096538;28;20035;-72
2022/04/30 02:25:44;;;;;;;14.90;6.32;;;8.00;54.80;;;;;;5112786;28;20046;-74
2022/04/30 02:28:10;;;;;;;13.07;6.97;;;8.00;54.80;;;;;;5112935;28;20044;-72
2022/04/30 02:30:38;;;;;;;14.95;7.10;;;8.00;54.90;;;;;;5095844;28;20059;-72
2022/04/30 02:33:24;;;;;;;12.13;6.55;;;8.00;55.00;;;;;;5112108;28;20039;-73
2022/04/30 02:35:50;;;;;;;12.57;6.75;;;8.00;55.30;;;;;;5113953;28;20055;-74
2022/04/30 02:38:19;;;;;;;12.40;6.93;;;8.00;55.40;;;;;;5096011;28;20046;-72
2022/04/30 02:40:45;;;;;;;14.95;6.18;;;7.90;55.70;;;;;;5112748;28;20243;-73
2022/04/30 02:43:15;;;;;;;11.55;6.75;;;7.90;55.70;;;;;;5112987;28;20036;-74
2022/04/30 02:45:43;;;;;;;10.07;5.93;;;7.90;55.70;;;;;;5112449;28;20081;-72
2022/04/30 02:48:09;;;;;;;10.50;6.00;;;7.80;55.80;;;;;;5113330;28;20476;-72
2022/04/30 02:50:36;;;;;;;12.05;6.18;;;7.80;55.80;;;;;;5113658;28;20059;-71
2022/04/30 02:53:03;;;;;;;16.77;6.10;;;7.70;56.10;;;;;;5095681;28;20041;-74
2022/04/30 02:55:29;;;;;;;16.88;6.75;;;7.60;55.50;;;;;;5095326;28;20384;-72
2022/04/30 03:01:00;;;;;;;10.70;5.82;;;7.50;56.20;;;;;;5113448;28;20522;-74
2022/04/30 03:03:29;;;;;;;11.77;7.28;;;7.50;56.30;;;;;;5111623;28;20027;-72
2022/04/30 03:05:57;;;;;;;10.73;5.47;;;7.50;56.20;;;;;;5112207;28;20036;-72
2022/04/30 03:08:26;;;;;;;13.98;6.28;;;7.40;56.20;;;;;;5111907;28;20036;-74
2022/04/30 03:10:56;;;;;;;10.57;5.88;;;7.40;56.10;;;;;;5112099;28;20059;-72
2022/04/30 03:13:24;;;;;;;13.73;6.03;;;7.30;56.20;;;;;;5112435;28;20034;-74
2022/04/30 03:24:27;;;;;;;13.63;7.18;;;7.30;57.60;;;;;;5113521;28;20042;-72
2022/04/30 03:26:53;;;;;;;13.75;6.03;;;7.30;57.00;;;;;;5111620;28;20028;-74
2022/04/30 03:29:20;;;;;;;10.95;6.10;;;7.30;57.00;;;;;;5112023;28;20401;-74
2022/04/30 03:31:47;;;;;;;12.45;6.75;;;7.30;56.90;;;;;;5111098;28;20043;-74
2022/04/30 03:34:14;;;;;;;13.88;7.25;;;7.30;56.80;;;;;;5095057;28;20102;-72
2022/04/30 03:36:40;;;;;;;;;;;7.30;56.70;;;;;;5114005;28;20036;-72
2022/04/30 03:39:07;;;;;;;11.57;6.35;;;7.30;56.20;;;;;;5112142;28;19919;-72
2022/04/30 03:41:33;;;;;;;13.27;6.97;;;7.30;56.50;;;;;;5111616;28;20032;-73
2022/04/30 03:44:00;;;;;;;16.80;6.97;;;7.20;56.50;;;;;;5113564;28;20036;-72
2022/04/30 03:46:27;;;;;;;13.40;6.18;;;7.20;56.60;;;;;;5112775;28;20575;-74
2022/04/30 03:48:56;;;;;;;11.73;5.53;;;7.20;56.60;;;;;;5112648;28;20459;-72
2022/04/30 03:51:23;;;;;;;11.32;5.30;;;7.20;56.70;;;;;;5112674;28;20031;-72
2022/04/30 03:53:50;;;;;;;14.73;6.43;;;7.10;56.50;;;;;;5113615;28;20027;-74
2022/04/30 03:56:17;;;;;;;11.13;6.03;;;7.10;56.50;;;;;;5094435;28;20040;-74
2022/04/30 03:58:46;;;;;;;10.23;5.15;;;7.10;56.20;;;;;;5112056;28;20032;-72
2022/04/30 04:01:14;;;;;;;10.77;5.38;;;7.10;56.60;;;;;;5111394;28;20028;-72
2022/04/30 04:03:42;;;;;;;11.77;5.53;;;7.00;56.60;;;;;;5110681;28;20031;-71
2022/04/30 04:06:08;;;;;;;11.13;5.38;;;7.00;56.70;;;;;;5111342;28;20063;-73
2022/04/30 04:08:37;;;;;;;;;;;7.00;56.80;;;;;;5095444;28;20066;-72
2022/04/30 04:11:10;;;;;;;10.48;5.82;;;7.00;56.30;;;;;;5111365;28;20309;-74
2022/04/30 04:19:26;;;;;;;15.40;6.75;;;7.00;56.50;;;;;;5113407;28;20125;-73
2022/04/30 04:21:52;;;;;;;11.30;6.00;;;7.00;56.60;;;;;;5098389;28;20028;-71
2022/04/30 04:27:03;;;;;;;16.80;7.20;;;7.10;56.80;;;;;;5116348;28;20424;-73
2022/04/30 04:29:30;;;;;;;13.35;6.68;;;7.10;56.60;;;;;;5116889;28;20079;-73
2022/04/30 04:31:56;;;;;;;;;;;7.20;56.80;;;;;;5116902;28;20114;-74
2022/04/30 04:34:22;;;;;;;13.00;6.88;;;7.20;56.30;;;;;;5114531;28;20361;-72
2022/04/30 04:36:48;;;;;;;12.52;7.65;;;7.30;56.50;;;;;;5116605;28;20023;-73
2022/04/30 04:39:16;;;;;;;15.52;7.53;;;7.30;56.70;;;;;;5115553;28;20115;-71
2022/04/30 04:41:43;;;;;;;14.70;7.07;;;7.40;56.60;;;;;;5114789;28;20039;-72
2022/04/30 04:44:11;;;;;;;11.98;6.03;;;7.40;56.60;;;;;;5115446;28;20043;-73
2022/04/30 04:46:39;;;;;;;12.60;6.13;;;7.50;56.80;;;;;;5115993;28;20063;-72
2022/04/30 04:49:06;;;;;;;13.57;6.13;;;7.50;56.80;;;;;;5114435;28;20494;-73
2022/04/30 04:51:34;;;;;;;10.60;5.88;;;7.50;56.90;;;;;;5114730;28;20348;-73
2022/04/30 04:54:19;;;;;;;14.23;6.57;;;7.50;56.90;;;;;;5115209;28;20057;-71
2022/04/30 04:56:45;;;;;;;11.30;5.88;;;7.60;57.00;;;;;;5116114;28;20440;-73
2022/04/30 04:59:13;;;;;;;;;;;7.60;56.70;;;;;;5098399;28;20434;-72
2022/04/30 05:01:40;;;;;;;14.02;6.70;;;7.70;56.30;;;;;;5114525;28;19915;-71
2022/04/30 05:04:08;;;;;;;14.07;6.72;;;7.70;56.60;;;;;;5115464;28;20039;-73
2022/04/30 05:06:35;;;;;;;13.68;7.97;;;7.80;56.70;;;;;;5114455;28;20077;-72
2022/04/30 05:09:02;;;;;;;14.90;7.85;;;7.90;56.80;;;;;;5114915;28;20528;-71
2022/04/30 05:11:28;;;;;;;15.60;8.07;;;7.90;56.90;;;;;;5115417;27;20035;-72
2022/04/30 05:13:55;;;;;;;16.65;8.85;;;8.00;57.20;;;;;;5114872;28;20036;-71
2022/04/30 05:16:21;;;;;;;19.92;10.07;;;8.10;57.20;;;;;;5114266;28;20500;-71
2022/04/30 05:18:47;;;;;;;11.73;7.43;;;8.10;57.40;;;;;;5113823;28;20085;-71
2022/04/30 05:21:13;;;;;;;11.45;6.90;;;8.20;57.70;;;;;;5114201;28;20071;-72
2022/04/30 05:23:39;;;;;;;11.93;6.90;;;8.20;58.50;;;;;;5114716;28;20114;-73
2022/04/30 05:26:05;;;;;;;;;;;8.30;58.10;;;;;;5114600;28;20527;-71
2022/04/30 05:28:32;;;;;;;10.73;6.63;;;8.30;57.50;;;;;;5115547;28;19915;-71
2022/04/30 05:30:58;;;;;;;12.98;6.20;;;8.40;57.90;;;;;;5096043;28;20024;-71
2022/04/30 05:33:24;;;;;;;12.60;6.90;;;8.40;58.00;;;;;;5113419;28;20036;-71
2022/04/30 05:35:50;;;;;;;15.07;7.30;;;8.50;58.30;;;;;;5113918;28;20051;-71
2022/04/30 05:38:16;;;;;;;11.75;7.18;;;8.60;58.40;;;;;;5097240;28;20049;-71
2022/04/30 05:40:43;;;;;;;13.75;6.53;;;8.60;58.80;;;;;;5115012;28;20035;-73
2022/04/30 05:43:09;;;;;;;11.80;6.43;;;8.60;58.70;;;;;;5115537;28;20111;-72
2022/04/30 05:45:35;;;;;;;13.85;7.45;;;8.70;59.00;;;;;;5113819;28;20035;-72
2022/04/30 05:48:01;;;;;;;10.43;6.53;;;8.70;59.00;;;;;;5112999;28;20067;-74
2022/04/30 05:50:27;;;;;;;25.40;7.60;;;8.80;58.90;;;;;;5113637;28;20081;-73
2022/04/30 05:52:53;;;;;;;13.70;7.13;;;8.90;58.90;;;;;;5096720;28;20042;-72
2022/04/30 05:55:20;;;;;;;16.05;7.82;;;8.90;58.90;;;;;;5113580;28;20032;-74
2022/04/30 05:57:46;;;;;;;12.13;7.50;;;9.00;58.90;;;;;;5115274;28;20039;-73
2022/04/30 06:00:13;;;;;;;18.85;7.20;;;9.10;59.10;;;;;;5113330;28;20381;-72
2022/04/30 06:02:40;;;;;;;15.57;7.45;;;9.10;59.10;;;;;;5115055;28;20047;-73
2022/04/30 06:05:08;;;;;;;14.70;7.60;;;9.20;59.10;;;;;;5113804;28;20119;-72
2022/04/30 06:07:34;;;;;;;12.57;7.07;;;9.20;58.70;;;;;;5114894;28;20035;-71
2022/04/30 06:10:01;;;;;;;11.85;6.82;;;9.30;59.10;;;;;;5114813;28;20031;-71
2022/04/30 06:12:27;;;;;;;11.52;6.60;;;9.40;59.20;;;;;;5112899;28;20032;-72
2022/04/30 06:14:53;;;;;;;11.68;6.75;;;9.40;58.40;;;;;;5096458;28;20123;-72
2022/04/30 06:17:19;;;;;;;12.52;7.45;;;9.60;58.70;;;;;;5113059;28;20108;-72
2022/04/30 06:19:45;;;;;;;13.50;7.50;;;9.70;58.90;;;;;;5113829;28;20043;-73
2022/04/30 06:22:12;;;;;;;21.98;13.50;;;9.80;58.80;;;;;;5114146;28;20424;-72
2022/04/30 06:24:38;;;;;;;17.48;7.68;;;9.90;58.90;;;;;;5113362;28;20031;-71
2022/04/30 06:27:05;;;;;;;13.48;8.13;;;10.00;58.80;;;;;;5112809;28;20024;-72
2022/04/30 06:29:32;;;;;;;12.77;7.90;;;10.10;58.60;;;;;;5113338;28;20056;-74
2022/04/30 06:31:58;;;;;;;;;;;10.30;58.60;;;;;;5113318;28;20103;-73
2022/04/30 06:34:24;;;;;;;14.60;7.93;;;10.50;57.90;;;;;;5112085;28;19927;-73
2022/04/30 06:48:09;;;;;;;12.40;7.15;;;12.00;60.70;;;;;;5089906;27;20636;-74
2022/04/30 06:50:35;;;;;;;13.98;6.97;;;12.20;58.50;;;;;;5088337;28;20076;-72
2022/04/30 06:58:40;;;;;;;12.77;7.30;;;12.80;57.10;;;;;;5089774;28;20030;-73
2022/04/30 07:04:14;;;;;;;13.43;8.50;;;13.30;56.60;;;;;;5088692;28;20375;-73
2022/04/30 07:06:40;;;;;;;14.15;8.70;;;13.70;56.20;;;;;;5088006;28;20028;-73
2022/04/30 07:09:07;;;;;;;14.23;7.40;;;14.10;55.90;;;;;;5089624;28;20074;-74
2022/04/30 07:11:34;;;;;;;11.00;6.22;;;14.50;55.20;;;;;;5088005;28;20048;-72
2022/04/30 07:14:00;;;;;;;8.20;4.15;;;14.80;54.40;;;;;;5088321;28;20078;-73
2022/04/30 07:16:26;;;;;;;9.13;3.53;;;15.30;52.10;;;;;;5071007;28;20378;-73
2022/04/30 07:18:53;;;;;;;9.20;3.92;;;15.60;49.70;;;;;;5070327;28;20032;-74
2022/04/30 07:21:19;;;;;;;7.95;3.78;;;15.90;48.40;;;;;;5089219;28;20577;-73
2022/04/30 07:23:55;;;;;;;;;;;;;;;;;;;;;
2022/04/30 07:26:22;;;;;;;7.65;3.95;;;16.40;46.70;;;;;;5089134;28;20388;-74
2022/04/30 07:28:48;;;;;;;7.70;3.35;;;16.60;46.40;;;;;;5089279;28;20028;-74
2022/04/30 07:31:14;;;;;;;10.13;4.68;;;16.90;45.50;;;;;;5087791;28;20123;-74
2022/04/30 07:33:41;;;;;;;;;;;17.10;43.30;;;;;;5088367;28;20041;-73
2022/04/30 07:36:07;;;;;;;11.70;4.00;;;17.30;45.40;;;;;;5086386;28;19921;-73
2022/04/30 07:38:34;;;;;;;10.60;3.90;;;17.70;43.50;;;;;;5089041;28;20108;-73
2022/04/30 07:41:00;;;;;;;9.13;4.50;;;18.00;42.00;;;;;;5087275;28;20043;-75
2022/04/30 07:43:26;;;;;;;7.20;3.35;;;18.40;40.70;;;;;;5087623;28;20397;-75
2022/04/30 07:45:52;;;;;;;7.35;3.42;;;18.80;40.70;;;;;;5088340;28;20097;-73
2022/04/30 07:48:18;;;;;;;;;;;19.20;40.50;;;;;;5062382;28;20028;-76
2022/04/30 07:50:45;;;;;;;7.30;3.58;;;19.60;42.70;;;;;;5073987;28;19920;-74
2022/04/30 07:55:58;;;;;;;7.57;3.88;;;20.40;37.90;;;;;;5073988;28;20170;-75
2022/04/30 07:58:25;;;;;;;;;;;21.00;37.90;;;;;;5057801;28;20071;-75
2022/04/30 08:00:51;;;;;;;6.73;3.00;;;21.60;39.90;;;;;;5073603;28;19924;-75
2022/04/30 08:03:17;;;;;;;7.38;3.08;;;22.00;36.70;;;;;;5073842;28;20437;-73
2022/04/30 08:05:53;;;;;;;;;;;22.40;34.60;;;;;;5074335;28;20393;-73
2022/04/30 08:08:19;;;;;;;6.38;3.25;;;23.00;37.10;;;;;;5074967;28;19912;-75
2022/04/30 08:10:45;;;;;;;6.65;3.40;;;23.60;33.30;;;;;;5074607;28;20509;-76
2022/04/30 08:13:12;;;;;;;;;;;24.00;31.90;;;;;;5075193;28;20063;-74
2022/04/30 08:15:44;;;;;;;7.13;3.73;;;24.50;34.50;;;;;;5074541;28;19950;-76
2022/04/30 08:18:11;;;;;;;10.35;4.45;;;25.00;29.70;;;;;;5073364;28;20442;-74
2022/04/30 08:20:39;;;;;;;11.20;4.55;;;25.60;28.50;;;;;;5072548;28;20086;-73
2022/04/30 08:25:50;;;;;;;7.18;3.40;;;26.40;26.80;;;;;;5074364;28;20401;-76
2022/04/30 08:28:16;;;;;;;9.40;3.85;;;27.10;26.50;;;;;;5074683;28;20393;-74
2022/04/30 08:30:42;;;;;;;8.38;4.00;;;27.60;25.50;;;;;;5073253;28;20067;-76
2022/04/30 08:33:08;;;;;;;8.00;4.00;;;28.10;25.10;;;;;;5073316;28;20481;-75
2022/04/30 08:35:34;;;;;;;7.07;3.60;;;28.60;24.10;;;;;;5071842;28;20382;-74
2022/04/30 08:38:00;;;;;;;7.90;3.67;;;29.10;23.30;;;;;;5073133;28;20047;-74
2022/04/30 08:40:26;;;;;;;8.65;3.50;;;29.50;22.80;;;;;;5055971;28;20020;-76
2022/04/30 08:42:53;;;;;;;8.15;4.20;;;30.10;22.50;;;;;;5073023;28;20174;-74
2022/04/30 08:45:22;;;;;;;7.72;4.00;;;30.50;21.30;;;;;;5072661;28;20480;-76
2022/04/30 08:47:50;;;;;;;10.57;4.88;;;30.80;20.80;;;;;;5073050;28;20117;-73
2022/04/30 08:50:16;;;;;;;8.55;4.82;;;31.30;20.30;;;;;;5071508;28;20029;-74
2022/04/30 08:52:42;;;;;;;9.75;4.50;;;31.60;19.20;;;;;;5074163;28;20033;-76
2022/04/30 08:55:10;;;;;;;8.55;4.88;;;31.90;18.80;;;;;;5072414;28;20059;-76
2022/04/30 08:57:36;;;;;;;8.75;4.22;;;32.40;18.80;;;;;;5074402;28;20433;-73
2022/04/30 09:00:05;;;;;;;9.27;4.70;;;32.90;18.20;;;;;;5072981;28;20040;-73
2022/04/30 09:02:31;;;;;;;10.32;6.60;;;33.20;18.20;;;;;;5074172;28;20032;-74
2022/04/30 09:04:57;;;;;;;10.85;5.93;;;33.60;17.20;;;;;;5072981;28;20409;-73
2022/04/30 09:07:26;;;;;;;9.45;5.03;;;33.90;17.00;;;;;;5072311;28;20044;-76
2022/04/30 09:10:10;;;;;;;8.15;4.75;;;34.30;16.80;;;;;;5073838;28;20025;-76
2022/04/30 09:12:41;;;;;;;12.07;5.65;;;34.60;16.70;;;;;;5072408;28;20107;-74
2022/04/30 09:15:26;;;;;;;11.10;5.10;;;34.80;15.60;;;;;;5072284;28;20046;-73
2022/04/30 09:17:59;;;;;;;8.57;5.00;;;35.30;16.60;;;;;;5073689;28;20040;-75
2022/04/30 09:20:26;;;;;;;12.85;4.85;;;35.60;15.50;;;;;;5071115;28;20032;-73
2022/04/30 09:22:52;;;;;;;9.63;5.88;;;36.00;15.20;;;;;;5072400;28;20024;-74
2022/04/30 09:25:19;;;;;;;9.35;5.13;;;36.50;14.80;;;;;;5071780;28;20479;-76
2022/04/30 09:27:50;;;;;;;10.20;5.47;;;36.90;14.20;;;;;;5055498;28;20043;-75
2022/04/30 09:30:36;;;;;;;9.57;5.22;;;37.30;14.40;;;;;;5071807;28;20038;-75
2022/04/30 09:33:21;;;;;;;9.35;4.90;;;37.90;14.60;;;;;;5073241;28;20039;-75
2022/04/30 09:38:51;;;;;;;8.25;4.78;;;38.60;13.30;;;;;;5066447;28;20043;-75
2022/04/30 09:41:37;;;;;;;8.68;4.78;;;38.80;13.20;;;;;;5051646;28;20044;-75
2022/04/30 09:44:08;;;;;;;17.58;5.75;;;39.40;13.60;;;;;;5035404;28;20032;-74
2022/04/30 09:46:36;;;;;;;9.77;5.43;;;39.80;12.60;;;;;;5067908;28;20063;-75
2022/04/30 09:54:51;;;;;;;8.73;4.38;;;40.80;11.40;;;;;;5071977;28;20417;-73
2022/04/30 09:57:22;;;;;;;12.77;4.32;;;41.00;11.60;;;;;;5071327;28;20033;-75
2022/04/30 09:59:58;;;;;;;8.02;4.47;;;41.30;11.60;;;;;;5071746;28;20051;-75
2022/04/30 10:02:28;;;;;;;7.50;3.65;;;41.60;10.70;;;;;;5071482;28;20059;-74
2022/04/30 10:04:56;;;;;;;7.43;4.30;;;41.70;10.90;;;;;;5071761;28;20029;-73
2022/04/30 10:07:25;;;;;;;6.97;3.72;;;42.50;10.60;;;;;;5071864;28;20040;-73
2022/04/30 10:10:29;;;;;;;7.57;4.07;;;42.90;9.90;;;;;;5071606;28;20087;-74
2022/04/30 10:13:09;;;;;;;6.50;3.45;;;43.30;10.90;;;;;;5071571;28;20040;-75
2022/04/30 10:16:11;;;;;;;7.97;3.63;;;43.40;9.90;;;;;;5071239;28;20035;-76
2022/04/30 10:18:44;;;;;;;5.25;2.97;;;43.90;9.90;;;;;;5071451;28;20036;-73
2022/04/30 10:21:19;;;;;;;11.43;2.90;;;44.70;9.50;;;;;;5071507;28;20047;-73
2022/04/30 10:23:45;;;;;;;8.40;3.30;;;45.20;8.70;;;;;;5071712;28;20033;-76
2022/04/30 10:26:32;;;;;;;6.50;2.50;;;45.60;8.10;;;;;;5071105;28;20115;-75
2022/04/30 10:29:16;;;;;;;4.30;2.40;;;45.70;8.40;;;;;;5041134;28;20054;-75
2022/04/30 10:32:02;;;;;;;11.03;3.50;;;46.10;8.50;;;;;;5072406;28;20036;-72
2022/04/30 10:34:30;;;;;;;6.07;3.45;;;46.20;8.50;;;;;;5071432;28;20033;-75
2022/04/30 10:36:56;;;;;;;9.10;3.25;;;46.70;8.00;;;;;;5069902;28;20040;-73
2022/04/30 10:39:22;;;;;;;4.72;2.53;;;46.80;7.70;;;;;;5071226;28;20424;-75
2022/04/30 10:42:07;;;;;;;7.95;3.63;;;46.90;7.40;;;;;;5072021;28;20101;-75
2022/04/30 10:45:16;;;;;;;5.72;2.88;;;47.30;7.70;;;;;;5072457;28;20489;-75
2022/04/30 10:47:59;;;;;;;5.88;2.92;;;47.60;7.50;;;;;;5070959;28;20106;-74
2022/04/30 10:50:25;;;;;;;5.88;2.70;;;47.70;6.70;;;;;;5071494;28;20080;-75
2022/04/30 10:52:54;;;;;;;4.43;2.33;;;48.00;6.90;;;;;;5071871;28;20440;-73
2022/04/30 10:55:21;;;;;;;4.90;2.65;;;48.40;7.00;;;;;;5068956;28;20423;-74
2022/04/30 10:57:47;;;;;;;5.95;2.63;;;48.80;6.20;;;;;;5066658;28;20573;-74
2022/04/30 11:00:14;;;;;;;9.00;2.67;;;49.30;6.80;;;;;;5050201;28;20108;-74
2022/04/30 11:02:40;;;;;;;4.30;2.38;;;49.20;6.30;;;;;;5052212;28;20119;-75
2022/04/30 11:05:38;;;;;;;7.45;3.08;;;49.10;6.60;;;;;;5050745;28;20108;-73
2022/04/30 11:08:23;;;;;;;6.25;3.60;;;49.10;6.70;;;;;;5067568;28;20120;-76
2022/04/30 11:11:08;;;;;;;4.60;2.85;;;49.40;5.60;;;;;;5051887;28;20036;-73
2022/04/30 11:13:36;;;;;;;;;;;49.70;6.10;;;;;;5051547;28;20048;-73
2022/04/30 11:16:17;;;;;;;4.80;2.60;;;50.00;7.10;;;;;;5050542;28;20365;-75
2022/04/30 11:18:43;;;;;;;6.05;2.80;;;50.20;6.40;;;;;;5052044;28;20549;-75
2022/04/30 11:21:09;;;;;;;5.05;2.63;;;49.90;5.90;;;;;;5054876;28;20048;-76
2022/04/30 11:23:35;;;;;;;5.30;3.65;;;50.30;5.90;;;;;;5071765;28;20029;-73
2022/04/30 11:26:01;;;;;;;4.38;2.90;;;50.60;5.90;;;;;;5055470;28;20048;-75
2022/04/30 11:28:29;;;;;;;4.47;2.35;;;50.90;5.50;;;;;;5054510;28;20029;-75
2022/04/30 11:31:01;;;;;;;4.40;2.15;;;51.10;5.60;;;;;;5037443;28;20033;-73
2022/04/30 11:33:36;;;;;;;4.63;2.67;;;50.60;5.50;;;;;;5055716;28;20025;-75
2022/04/30 11:36:03;;;;;;;5.13;2.50;;;51.00;5.40;;;;;;5038513;28;20098;-73
2022/04/30 11:38:29;;;;;;;5.85;2.63;;;51.80;4.80;;;;;;5057663;28;20036;-73
2022/04/30 11:41:15;;;;;;;6.18;2.30;;;52.00;5.60;;;;;;5075005;28;20036;-74
2022/04/30 11:43:41;;;;;;;4.18;2.47;;;51.80;5.10;;;;;;5075495;28;20040;-73
2022/04/30 11:46:08;;;;;;;7.75;2.60;;;51.80;4.60;;;;;;5074824;28;20060;-75
2022/04/30 11:48:52;;;;;;;6.88;2.70;;;52.00;5.20;;;;;;5075515;28;20040;-74
2022/04/30 11:51:19;;;;;;;4.13;2.40;;;52.10;5.40;;;;;;5074196;28;20115;-73
2022/04/30 11:53:45;;;;;;;4.15;2.33;;;52.50;5.00;;;;;;5074092;28;20047;-75
2022/04/30 11:56:15;;;;;;;3.38;2.08;;;52.60;4.70;;;;;;5073548;28;20051;-74
2022/04/30 11:59:00;;;;;;;4.13;2.70;;;52.60;4.70;;;;;;5057218;28;20033;-74
2022/04/30 12:01:30;;;;;;;6.22;2.65;;;52.90;5.00;;;;;;5067698;28;20036;-74
2022/04/30 12:04:04;;;;;;;4.88;2.42;;;53.30;4.90;;;;;;5053770;28;20031;-73
2022/04/30 12:06:32;;;;;;;7.30;2.85;;;53.10;4.60;;;;;;5056302;28;20076;-75
2022/04/30 12:08:59;;;;;;;6.15;3.08;;;53.40;5.00;;;;;;5074925;28;20089;-73
2022/04/30 12:11:26;;;;;;;4.45;2.78;;;53.50;4.90;;;;;;5074358;28;20040;-75
2022/04/30 12:14:21;;;;;;;6.13;3.20;;;51.20;5.10;;;;;;5073444;28;20036;-75
2022/04/30 12:16:49;;;;;;;4.50;2.22;;;49.60;5.90;;;;;;5073364;28;20040;-73
2022/04/30 12:25:31;;;;;;;7.32;2.33;;;50.50;5.30;;;;;;5073446;28;20035;-73
2022/04/30 12:28:02;;;;;;;5.97;2.88;;;50.80;5.10;;;;;;5073473;28;20400;-75
2022/04/30 12:30:28;;;;;;;4.28;2.95;;;50.90;5.00;;;;;;5073205;28;20032;-75
2022/04/30 12:33:14;;;;;;;4.10;2.40;;;49.40;5.40;;;;;;5056523;28;20043;-73
2022/04/30 12:35:42;;;;;;;7.68;2.58;;;46.80;5.60;;;;;;5074271;28;20068;-75
2022/04/30 12:38:12;;;;;;;4.80;2.60;;;46.40;5.90;;;;;;5073469;28;20058;-75
2022/04/30 12:40:58;;;;;;;5.13;2.72;;;45.50;6.50;;;;;;5074137;28;20036;-73
2022/04/30 12:43:26;;;;;;;3.58;1.92;;;47.60;6.50;;;;;;5073191;28;20028;-74
2022/04/30 12:45:54;;;;;;;3.80;1.85;;;48.70;5.80;;;;;;5055849;28;20513;-74
2022/04/30 12:48:20;;;;;;;4.15;2.03;;;49.50;5.60;;;;;;5073136;28;20070;-73
2022/04/30 12:50:49;;;;;;;4.60;2.20;;;49.60;5.30;;;;;;5073893;28;20041;-76
2022/04/30 12:53:15;;;;;;;4.78;2.15;;;50.50;5.50;;;;;;5055600;28;20032;-75
2022/04/30 12:55:42;;;;;;;4.20;2.45;;;50.80;4.90;;;;;;5055716;28;20094;-75
2022/04/30 12:58:11;;;;;;;5.57;2.33;;;51.30;5.40;;;;;;5074102;28;20111;-75
2022/04/30 13:00:38;;;;;;;3.50;2.05;;;51.80;5.40;;;;;;5072528;28;20040;-76
2022/04/30 13:03:05;;;;;;;5.13;2.17;;;51.80;4.80;;;;;;5072702;28;20037;-74
2022/04/30 13:05:31;;;;;;;3.50;2.00;;;50.90;5.00;;;;;;5055754;28;20119;-75
2022/04/30 13:07:58;;;;;;;4.18;2.08;;;49.60;5.50;;;;;;5072944;28;20482;-73
2022/04/30 13:15:54;;;;;;;3.25;2.25;;;50.80;5.40;;;;;;5073518;28;20064;-75
2022/04/30 13:18:21;;;;;;;4.80;2.20;;;51.60;5.20;;;;;;5072547;28;20436;-75
2022/04/30 13:20:47;;;;;;;4.07;2.63;;;52.20;5.00;;;;;;5072156;28;20082;-73
2022/04/30 13:23:13;;;;;;;5.93;2.53;;;52.70;5.10;;;;;;5072625;28;20032;-73
2022/04/30 13:25:39;;;;;;;4.28;2.50;;;52.80;5.00;;;;;;5073119;28;20036;-74
2022/04/30 13:28:06;;;;;;;4.82;2.30;;;52.70;5.00;;;;;;5072216;28;20055;-73
2022/04/30 13:30:32;;;;;;;3.13;1.90;;;52.80;4.90;;;;;;5071770;28;20077;-73
2022/04/30 13:32:58;;;;;;;4.88;3.03;;;52.80;5.40;;;;;;5072129;28;20056;-76
2022/04/30 13:35:25;;;;;;;6.60;2.72;;;53.10;5.00;;;;;;5071780;28;20078;-74
2022/04/30 13:37:51;;;;;;;5.97;3.55;;;53.10;4.90;;;;;;5071157;28;20074;-75
2022/04/30 13:40:18;;;;;;;8.30;2.97;;;53.30;5.30;;;;;;5072796;28;20024;-75
2022/04/30 13:42:45;;;;;;;10.80;2.90;;;53.40;4.70;;;;;;5055238;28;20028;-76
2022/04/30 13:45:13;;;;;;;4.45;2.70;;;53.30;4.80;;;;;;5071099;28;20020;-76
2022/04/30 13:47:40;;;;;;;4.55;2.50;;;53.30;5.40;;;;;;5072874;28;20057;-74
2022/04/30 13:50:17;;;;;;;4.60;2.90;;;53.70;5.10;;;;;;5071759;28;20283;-74
2022/04/30 13:52:45;;;;;;;6.93;2.75;;;53.40;4.90;;;;;;5072441;28;20047;-73
2022/04/30 13:55:12;;;;;;;5.65;2.90;;;52.90;5.10;;;;;;5054824;28;20062;-74
2022/04/30 13:57:39;;;;;;;4.40;2.42;;;50.20;5.60;;;;;;5071815;28;20044;-75
2022/04/30 14:00:07;;;;;;;5.88;3.00;;;48.10;6.30;;;;;;5072836;28;20055;-75
2022/04/30 14:02:34;;;;;;;5.35;2.75;;;47.50;6.10;;;;;;5071735;28;20052;-74
2022/04/30 14:05:03;;;;;;;4.05;2.45;;;45.70;6.40;;;;;;5072930;28;20100;-74
2022/04/30 14:07:32;;;;;;;5.78;2.17;;;44.00;7.00;;;;;;5053889;28;20051;-74
2022/04/30 14:10:01;;;;;;;9.70;3.28;;;42.70;7.70;;;;;;5072829;28;20028;-73
2022/04/30 14:12:27;;;;;;;18.95;3.25;;;42.50;8.30;;;;;;5072746;28;20047;-76
2022/04/30 14:20:22;;;;;;;7.15;2.17;;;40.40;9.20;;;;;;5072286;28;20067;-76
2022/04/30 14:22:50;;;;;;;4.10;2.08;;;39.20;9.90;;;;;;5070495;28;20037;-74